createdAt,value
2022-10-16T00:02:03.388Z,102083.25
2022-10-16T00:05:06.811Z,102079.06
2022-10-16T00:08:10.159Z,102117.47
2022-10-16T00:11:15.446Z,102113.22
2022-10-16T00:14:17.661Z,102105.56
2022-10-16T00:17:19.885Z,102088.41
2022-10-16T00:20:22.681Z,102098.75
2022-10-16T00:23:44.553Z,102076.06
2022-10-16T00:26:46.836Z,102086.84
2022-10-16T00:29:53.323Z,102109.53
2022-10-16T00:32:55.738Z,102085.84
2022-10-16T00:36:03.735Z,102091.69
2022-10-16T00:39:06.522Z,102123.06
2022-10-16T00:42:16.160Z,102113.13
2022-10-16T00:45:18.701Z,102119.66
2022-10-16T00:48:21.011Z,102122.09
2022-10-16T00:51:28.707Z,102122.66
2022-10-16T00:54:33.690Z,102115.19
2022-10-16T00:57:37.089Z,102106.69
2022-10-16T01:00:39.589Z,102119.47
2022-10-16T01:03:41.795Z,102125.88
2022-10-16T01:07:02.732Z,102121.63
2022-10-16T01:10:09.570Z,102125.63
2022-10-16T01:13:19.482Z,102121.22
2022-10-16T01:16:33.681Z,102112.66
2022-10-16T01:19:57.030Z,102126.16
2022-10-16T01:23:37.289Z,102128.16
2022-10-16T01:27:07.141Z,102128.19
2022-10-16T01:30:27.351Z,102124.75
2022-10-16T01:33:39.048Z,102136.41
2022-10-16T01:36:47.476Z,102137.69
2022-10-16T01:39:52.413Z,102148.63
2022-10-16T01:43:01.226Z,102127.72
2022-10-16T01:46:04.258Z,102148.75
2022-10-16T01:49:08.919Z,102144.50
2022-10-16T01:52:17.520Z,102139.38
2022-10-16T01:55:23.065Z,102154.75
2022-10-16T01:58:28.245Z,102129.72
2022-10-16T02:01:34.744Z,102138.94
2022-10-16T02:04:45.232Z,102134.56
2022-10-16T02:07:48.289Z,102120.47
2022-10-16T02:10:51.082Z,102157.44
2022-10-16T02:14:04.108Z,102151.19
2022-10-16T02:17:18.567Z,102173.06
2022-10-16T02:20:26.303Z,102150.34
2022-10-16T02:23:48.590Z,102161.69
2022-10-16T02:26:59.392Z,102176.19
2022-10-16T02:30:18.027Z,102154.72
2022-10-16T02:33:24.500Z,102175.16
2022-10-16T02:36:28.503Z,102169.50
2022-10-16T02:39:32.166Z,102165.78
2022-10-16T02:42:37.904Z,102185.44
2022-10-16T02:45:40.062Z,102155.00
2022-10-16T02:48:42.387Z,102187.81
2022-10-16T02:51:45.549Z,102165.22
2022-10-16T02:54:47.800Z,102162.09
2022-10-16T02:57:50.908Z,102174.59
2022-10-16T03:00:53.443Z,102184.38
2022-10-16T03:03:55.634Z,102196.06
2022-10-16T03:06:57.749Z,102162.22
2022-10-16T03:10:02.472Z,102195.78
2022-10-16T03:13:05.163Z,102200.03
2022-10-16T03:16:07.292Z,102200.88
2022-10-16T03:19:10.384Z,102197.19
2022-10-16T03:22:12.611Z,102207.84
2022-10-16T03:25:14.799Z,102189.31
2022-10-16T03:28:16.956Z,102220.38
2022-10-16T03:31:20.329Z,102231.75
2022-10-16T03:34:23.358Z,102215.69
2022-10-16T03:37:25.850Z,102225.34
2022-10-16T03:40:29.311Z,102228.75
2022-10-16T03:43:37.413Z,102223.88
2022-10-16T03:46:40.492Z,102222.50
2022-10-16T03:49:43.617Z,102227.84
2022-10-16T03:52:46.854Z,102233.81
2022-10-16T03:55:49.011Z,102230.09
2022-10-16T03:58:51.858Z,102221.88
2022-10-16T04:01:53.907Z,102229.28
2022-10-16T04:04:56.043Z,102233.91
2022-10-16T04:07:58.424Z,102243.59
2022-10-16T04:11:00.576Z,102215.91
2022-10-16T04:14:02.817Z,102227.56
2022-10-16T04:17:04.948Z,102218.16
2022-10-16T04:20:09.341Z,102229.47
2022-10-16T04:23:11.607Z,102228.44
2022-10-16T04:26:14.933Z,102226.00
2022-10-16T04:29:17.665Z,102252.00
2022-10-16T04:32:19.629Z,102251.84
2022-10-16T04:35:22.847Z,102254.72
2022-10-16T04:38:25.184Z,102244.81
2022-10-16T04:41:27.568Z,102251.53
2022-10-16T04:44:30.994Z,102270.63
2022-10-16T04:47:33.764Z,102245.63
2022-10-16T04:50:35.764Z,102250.69
2022-10-16T04:53:41.160Z,102252.19
2022-10-16T04:56:51.449Z,102270.28
2022-10-16T04:59:53.651Z,102276.69
2022-10-16T05:02:55.815Z,102267.88
2022-10-16T05:05:58.023Z,102278.13
2022-10-16T05:08:59.988Z,102289.22
2022-10-16T05:12:03.061Z,102303.31
2022-10-16T05:15:05.795Z,102297.84
2022-10-16T05:18:07.786Z,102303.22
2022-10-16T05:21:09.947Z,102288.16
2022-10-16T05:24:13.160Z,102289.84
2022-10-16T05:27:20.042Z,102311.34
2022-10-16T05:30:22.282Z,102316.22
2022-10-16T05:33:26.811Z,102311.09
2022-10-16T05:36:28.903Z,102320.50
2022-10-16T05:39:30.939Z,102339.31
2022-10-16T05:42:33.124Z,102322.22
2022-10-16T05:45:35.360Z,102345.50
2022-10-16T05:48:37.393Z,102330.28
2022-10-16T05:51:39.533Z,102334.38
2022-10-16T05:54:41.564Z,102336.44
2022-10-16T05:57:43.647Z,102332.03
2022-10-16T06:00:45.733Z,102344.66
2022-10-16T06:03:47.985Z,102347.81
2022-10-16T06:06:49.996Z,102361.34
2022-10-16T06:09:53.655Z,102359.09
2022-10-16T06:12:55.642Z,102360.06
2022-10-16T06:16:00.146Z,102352.09
2022-10-16T06:19:07.588Z,102364.72
2022-10-16T06:22:09.618Z,102360.88
2022-10-16T06:25:11.775Z,102354.16
2022-10-16T06:28:15.938Z,102347.03
2022-10-16T06:31:18.756Z,102377.84
2022-10-16T06:34:20.833Z,102389.56
2022-10-16T06:37:23.547Z,102384.78
2022-10-16T06:40:25.829Z,102375.94
2022-10-16T06:43:31.121Z,102380.78
2022-10-16T06:46:33.141Z,102384.59
2022-10-16T06:49:35.214Z,102379.50
2022-10-16T06:52:37.202Z,102377.31
2022-10-16T06:55:39.495Z,102385.16
2022-10-16T06:58:42.499Z,102395.44
2022-10-16T07:01:44.554Z,102384.78
2022-10-16T07:04:46.596Z,102384.47
2022-10-16T07:07:48.668Z,102379.59
2022-10-16T07:10:59.591Z,102377.56
2022-10-16T07:14:01.810Z,102379.03
2022-10-16T07:17:03.884Z,102379.31
2022-10-16T07:20:06.774Z,102400.09
2022-10-16T07:23:08.786Z,102381.59
2022-10-16T07:26:11.812Z,102388.28
2022-10-16T07:29:21.455Z,102405.69
2022-10-16T07:32:23.665Z,102406.59
2022-10-16T07:35:25.961Z,102402.81
2022-10-16T07:38:28.118Z,102405.13
2022-10-16T07:41:30.260Z,102411.34
2022-10-16T07:44:32.777Z,102406.53
2022-10-16T07:47:34.810Z,102419.31
2022-10-16T07:50:36.889Z,102380.91
2022-10-16T07:53:39.580Z,102399.72
2022-10-16T07:56:43.862Z,102414.75
2022-10-16T07:59:47.335Z,102411.97
2022-10-16T08:02:49.415Z,102414.69
2022-10-16T08:05:51.795Z,102409.09
2022-10-16T08:08:54.103Z,102388.72
2022-10-16T08:12:01.310Z,102397.56
2022-10-16T08:15:04.679Z,102410.34
2022-10-16T08:18:07.059Z,102406.25
2022-10-16T08:21:18.595Z,102398.44
2022-10-16T08:24:23.640Z,102401.38
2022-10-16T08:27:25.775Z,102398.06
2022-10-16T08:30:27.989Z,102401.50
2022-10-16T08:33:31.494Z,102397.09
2022-10-16T08:36:33.755Z,102395.53
2022-10-16T08:39:35.802Z,102382.22
2022-10-16T08:43:09.167Z,102386.63
2022-10-16T08:46:29.920Z,102386.63
2022-10-16T08:49:32.662Z,102360.78
2022-10-16T08:52:40.168Z,102382.25
2022-10-16T08:55:51.489Z,102388.84
2022-10-16T08:58:58.056Z,102383.66
2022-10-16T09:02:03.573Z,102377.03
2022-10-16T09:05:20.822Z,102394.44
2022-10-16T09:08:35.892Z,102379.91
2022-10-16T09:11:49.698Z,102402.63
2022-10-16T09:15:00.927Z,102386.75
2022-10-16T09:18:11.285Z,102398.22
2022-10-16T09:21:36.724Z,102393.63
2022-10-16T09:24:38.817Z,102388.66
2022-10-16T09:27:41.513Z,102379.84
2022-10-16T09:30:44.090Z,102400.75
2022-10-16T09:33:51.640Z,102389.72
2022-10-16T09:36:53.701Z,102394.00
2022-10-16T09:39:56.207Z,102395.16
2022-10-16T09:43:04.809Z,102385.94
2022-10-16T09:46:06.800Z,102387.81
2022-10-16T09:49:38.002Z,102383.19
2022-10-16T09:52:40.048Z,102377.13
2022-10-16T09:55:52.947Z,102387.19
2022-10-16T09:59:02.544Z,102378.03
2022-10-16T10:02:14.900Z,102374.94
2022-10-16T10:05:23.856Z,102376.28
2022-10-16T10:08:26.364Z,102342.53
2022-10-16T10:11:58.831Z,102370.84
2022-10-16T10:15:12.132Z,102347.13
2022-10-16T10:18:25.008Z,102371.47
2022-10-16T10:21:27.216Z,102366.91
2022-10-16T10:24:29.235Z,102372.03
2022-10-16T10:27:51.582Z,102374.03
2022-10-16T10:31:21.423Z,102388.34
2022-10-16T10:34:45.226Z,102378.88
2022-10-16T10:38:07.908Z,102353.78
2022-10-16T10:41:26.643Z,102369.88
2022-10-16T10:45:03.518Z,102365.09
2022-10-16T10:48:48.513Z,102350.22
2022-10-16T10:52:12.849Z,102358.63
2022-10-16T10:55:20.933Z,102352.84
2022-10-16T10:58:31.025Z,102354.41
2022-10-16T11:02:10.356Z,102338.59
2022-10-16T11:05:35.052Z,102337.44
2022-10-16T11:08:42.274Z,102343.09
2022-10-16T11:11:54.335Z,102345.50
2022-10-16T11:15:21.174Z,102332.44
2022-10-16T11:18:31.300Z,102317.66
2022-10-16T11:21:40.905Z,102332.97
2022-10-16T11:24:45.590Z,102329.75
2022-10-16T11:28:07.204Z,102330.59
2022-10-16T11:31:27.139Z,102326.50
2022-10-16T11:34:51.988Z,102319.66
2022-10-16T11:37:57.758Z,102312.72
2022-10-16T11:41:30.530Z,102326.28
2022-10-16T11:44:48.279Z,102320.03
2022-10-16T11:48:02.012Z,102313.25
2022-10-16T11:51:17.330Z,102321.59
2022-10-16T11:54:27.906Z,102303.88
2022-10-16T11:57:35.146Z,102320.56
2022-10-16T12:01:19.749Z,102329.91
2022-10-16T12:04:40.889Z,102320.03
2022-10-16T12:08:04.419Z,102310.00
2022-10-16T12:11:22.186Z,102322.59
2022-10-16T12:15:11.259Z,102326.84
2022-10-16T12:18:03.403Z,102331.56
2022-10-16T12:21:07.452Z,102331.44
2022-10-16T12:24:33.575Z,102327.88
2022-10-16T12:27:36.747Z,102319.84
2022-10-16T12:30:38.931Z,102333.94
2022-10-16T12:33:43.177Z,102333.75
2022-10-16T12:36:45.302Z,102336.47
2022-10-16T12:39:49.484Z,102338.22
2022-10-16T12:42:51.792Z,102326.63
2022-10-16T12:46:05.841Z,102332.78
2022-10-16T12:49:25.652Z,102332.81
2022-10-16T12:52:38.194Z,102325.81
2022-10-16T12:56:15.170Z,102331.25
2022-10-16T12:59:20.024Z,102337.38
2022-10-16T13:02:40.334Z,102339.25
2022-10-16T13:06:00.496Z,102342.97
2022-10-16T13:09:33.395Z,102344.69
2022-10-16T13:12:55.847Z,102342.13
2022-10-16T13:16:36.595Z,102335.31
2022-10-16T13:19:55.879Z,102328.47
2022-10-16T13:23:32.995Z,102342.41
2022-10-16T13:26:49.906Z,102348.00
2022-10-16T13:30:03.103Z,102332.88
2022-10-16T13:33:11.350Z,102343.09
2022-10-16T13:36:25.116Z,102336.63
2022-10-16T13:39:29.467Z,102354.59
2022-10-16T13:42:31.687Z,102352.69
2022-10-16T13:45:34.086Z,102349.44
2022-10-16T13:48:36.332Z,102364.75
2022-10-16T13:51:38.471Z,102338.47
2022-10-16T13:54:40.551Z,102353.53
2022-10-16T13:57:43.735Z,102360.00
2022-10-16T14:01:27.270Z,102372.56
2022-10-16T14:04:34.404Z,102362.84
2022-10-16T14:07:36.876Z,102364.03
2022-10-16T14:10:39.552Z,102366.28
2022-10-16T14:13:46.603Z,102352.22
2022-10-16T14:16:49.119Z,102357.50
2022-10-16T14:19:57.780Z,102333.53
2022-10-16T14:23:31.841Z,102357.59
2022-10-16T14:26:46.813Z,102362.38
2022-10-16T14:29:51.826Z,102343.09
2022-10-16T14:33:02.467Z,102344.34
2022-10-16T14:36:10.703Z,102352.34
2022-10-16T14:39:24.149Z,102355.22
2022-10-16T14:42:27.012Z,102352.91
2022-10-16T14:45:32.175Z,102358.22
2022-10-16T14:48:34.826Z,102349.25
2022-10-16T14:51:46.009Z,102362.25
2022-10-16T14:54:51.577Z,102364.78
2022-10-16T14:57:56.933Z,102372.97
2022-10-16T15:01:01.831Z,102378.50
2022-10-16T15:04:04.330Z,102378.41
2022-10-16T15:07:06.565Z,102373.22
2022-10-16T15:10:08.975Z,102379.00
2022-10-16T15:13:15.259Z,102360.91
2022-10-16T15:16:18.023Z,102377.94
2022-10-16T15:19:20.011Z,102387.34
2022-10-16T15:22:24.524Z,102378.72
2022-10-16T15:25:34.235Z,102393.88
2022-10-16T15:28:36.934Z,102376.84
2022-10-16T15:31:39.891Z,102390.25
2022-10-16T15:34:41.972Z,102381.06
2022-10-16T15:37:43.962Z,102379.66
2022-10-16T15:40:47.779Z,102404.81
2022-10-16T15:43:51.281Z,102410.91
2022-10-16T15:46:56.213Z,102411.53
2022-10-16T15:49:58.227Z,102417.41
2022-10-16T15:53:00.305Z,102421.59
2022-10-16T15:56:09.679Z,102430.19
2022-10-16T15:59:13.477Z,102423.81
2022-10-16T16:02:15.559Z,102448.13
2022-10-16T16:05:17.695Z,102434.19
2022-10-16T16:08:19.855Z,102457.78
2022-10-16T16:11:23.470Z,102480.22
2022-10-16T16:14:27.229Z,102468.19
2022-10-16T16:29:01.362Z,102486.16
2022-10-16T16:32:59.188Z,102493.22
2022-10-16T16:36:10.317Z,102469.56
2022-10-16T16:39:15.481Z,102492.34
2022-10-16T16:42:18.476Z,102500.66
2022-10-16T16:45:20.707Z,102491.34
2022-10-16T16:48:23.332Z,102494.66
2022-10-16T16:51:26.435Z,102494.78
2022-10-16T16:54:28.723Z,102484.63
2022-10-16T16:57:30.902Z,102474.69
2022-10-16T17:00:33.076Z,102506.41
2022-10-16T17:03:38.666Z,102454.47
2022-10-16T17:06:41.466Z,102495.69
2022-10-16T17:09:44.177Z,102479.88
2022-10-16T17:12:46.353Z,102515.66
2022-10-16T17:15:49.793Z,102517.53
2022-10-16T17:18:53.745Z,102495.25
2022-10-16T17:21:59.327Z,102525.94
2022-10-16T17:25:05.387Z,102527.03
2022-10-16T17:28:12.856Z,102518.53
2022-10-16T17:31:18.190Z,102506.44
2022-10-16T17:34:20.328Z,102533.53
2022-10-16T17:37:22.780Z,102529.50
2022-10-16T17:40:26.267Z,102485.56
2022-10-16T17:43:29.385Z,102493.56
2022-10-16T17:46:36.919Z,102474.84
2022-10-16T17:49:42.366Z,102527.84
2022-10-16T17:52:45.922Z,102518.16
2022-10-16T17:55:48.403Z,102531.56
2022-10-16T18:02:35.072Z,102548.16
2022-10-16T18:05:38.723Z,102527.50
2022-10-16T18:08:40.845Z,102545.75
2022-10-16T18:11:42.867Z,102540.25
2022-10-16T18:14:45.077Z,102527.16
2022-10-16T18:17:48.086Z,102516.63
2022-10-16T18:20:59.842Z,102546.25
2022-10-16T18:24:02.092Z,102546.06
2022-10-16T18:27:04.392Z,102532.81
2022-10-16T18:30:07.054Z,102560.91
2022-10-16T18:33:09.072Z,102551.63
2022-10-16T18:36:12.159Z,102564.94
2022-10-16T18:39:17.046Z,102575.44
2022-10-16T18:42:20.410Z,102566.34
2022-10-16T18:45:22.448Z,102573.19
2022-10-16T18:48:32.560Z,102565.69
2022-10-16T18:51:38.816Z,102585.50
2022-10-16T18:54:42.916Z,102564.88
2022-10-16T18:57:48.268Z,102573.22
2022-10-16T19:01:07.604Z,102539.63
2022-10-16T19:04:14.201Z,102563.28
2022-10-16T19:07:28.958Z,102595.91
2022-10-16T19:10:32.120Z,102524.53
2022-10-16T19:13:45.881Z,102615.16
2022-10-16T19:34:35.373Z,102635.84
2022-10-16T19:41:10.444Z,102631.34
2022-10-16T19:44:14.896Z,102599.38
2022-10-16T19:47:19.626Z,102612.91
2022-10-16T19:50:24.569Z,102606.00
2022-10-16T19:53:28.692Z,102624.34
2022-10-16T19:56:33.122Z,102640.38
2022-10-16T19:59:35.711Z,102621.38
2022-10-16T20:02:37.987Z,102646.59
2022-10-16T20:05:40.116Z,102637.53
2022-10-16T20:08:46.026Z,102639.19
2022-10-16T20:11:48.257Z,102616.41
2022-10-16T20:14:52.830Z,102623.56
2022-10-16T20:17:54.920Z,102620.31
2022-10-16T20:20:57.136Z,102635.22
2022-10-16T20:24:06.912Z,102650.22
2022-10-16T20:27:09.147Z,102621.06
2022-10-16T20:30:13.351Z,102623.59
2022-10-16T20:33:16.747Z,102639.88
2022-10-16T20:36:20.853Z,102642.31
2022-10-16T20:39:23.369Z,102625.88
2022-10-16T20:42:30.682Z,102622.44
2022-10-16T20:45:33.374Z,102648.16
2022-10-16T20:48:36.929Z,102655.78
2022-10-16T20:51:39.307Z,102624.38
2022-10-16T20:54:46.125Z,102641.16
2022-10-16T20:57:48.656Z,102666.25
2022-10-16T21:00:50.785Z,102630.28
2022-10-16T21:03:55.818Z,102654.56
2022-10-16T21:06:58.916Z,102635.13
2022-10-16T21:10:00.943Z,102604.03
2022-10-16T21:13:04.525Z,102635.91
2022-10-16T21:16:07.526Z,102643.22
2022-10-16T21:19:09.844Z,102630.03
2022-10-16T21:22:12.141Z,102601.03
2022-10-16T21:25:14.317Z,102622.13
2022-10-16T21:28:17.007Z,102653.56
2022-10-16T21:31:20.662Z,102658.94
2022-10-16T21:34:22.720Z,102609.03
2022-10-16T21:37:25.094Z,102661.25
2022-10-16T21:40:30.287Z,102664.44
2022-10-16T21:43:33.241Z,102620.13
2022-10-16T21:46:37.913Z,102686.16
2022-10-16T21:49:40.007Z,102663.63
2022-10-16T21:52:42.311Z,102653.59
2022-10-16T21:55:46.080Z,102657.78
2022-10-16T21:58:50.526Z,102670.63
2022-10-16T22:01:55.654Z,102673.19
2022-10-16T22:04:57.732Z,102693.78
2022-10-16T22:07:59.749Z,102683.84
2022-10-16T22:11:13.797Z,102698.63
2022-10-16T22:14:18.614Z,102694.25
2022-10-16T22:17:20.697Z,102695.97
2022-10-16T22:20:22.762Z,102658.72
2022-10-16T22:23:24.941Z,102677.72
2022-10-16T22:26:27.622Z,102660.31
2022-10-16T22:29:29.660Z,102682.13
2022-10-16T22:32:33.631Z,102697.72
2022-10-16T22:35:38.163Z,102678.25
2022-10-16T22:38:41.301Z,102658.03
2022-10-16T22:41:43.655Z,102691.97
2022-10-16T22:44:45.684Z,102675.41
2022-10-16T22:47:47.880Z,102687.56
2022-10-16T22:50:50.180Z,102699.69
2022-10-16T22:53:53.255Z,102692.34
2022-10-16T22:56:55.420Z,102679.84
2022-10-16T22:59:59.854Z,102685.97
2022-10-16T23:03:02.030Z,102695.25
2022-10-16T23:06:05.975Z,102693.81
2022-10-16T23:09:08.049Z,102693.19
2022-10-16T23:12:10.492Z,102719.81
2022-10-16T23:15:12.733Z,102677.66
2022-10-16T23:18:14.866Z,102683.88
2022-10-16T23:21:19.921Z,102712.44
2022-10-16T23:24:22.967Z,102731.19
2022-10-16T23:27:27.872Z,102702.34
2022-10-16T23:30:30.573Z,102684.69
2022-10-16T23:33:34.422Z,102704.84
2022-10-16T23:36:36.485Z,102707.97
2022-10-16T23:39:38.577Z,102699.13
2022-10-16T23:42:42.101Z,102713.34
2022-10-16T23:45:44.450Z,102691.66
2022-10-16T23:48:46.914Z,102672.31
2022-10-16T23:51:49.137Z,102711.69
2022-10-16T23:54:51.242Z,102695.06
2022-10-16T23:57:53.576Z,102720.91
